createdAt,value
2019-03-22T00:01:13.213Z,68.14
2019-03-22T00:03:44.625Z,68.51
2019-03-22T00:06:16.626Z,68.47
2019-03-22T00:08:47.644Z,68.58
2019-03-22T00:11:18.963Z,68.87
2019-03-22T00:13:50.229Z,69.00
2019-03-22T00:16:22.049Z,68.92
2019-03-22T00:19:02.073Z,68.98
2019-03-22T00:21:34.671Z,68.99
2019-03-22T00:24:05.773Z,68.33
2019-03-22T00:26:37.126Z,68.85
2019-03-22T00:29:08.272Z,69.15
2019-03-22T00:31:39.401Z,69.14
2019-03-22T00:34:11.064Z,69.11
2019-03-22T00:36:45.138Z,69.03
2019-03-22T00:39:16.226Z,68.97
2019-03-22T00:41:47.577Z,69.11
2019-03-22T00:44:26.228Z,69.38
2019-03-22T00:47:01.092Z,69.47
2019-03-22T00:49:34.357Z,69.32
2019-03-22T00:52:07.330Z,69.43
2019-03-22T00:54:39.803Z,69.41
2019-03-22T00:57:13.143Z,69.41
2019-03-22T00:59:45.202Z,69.56
2019-03-22T01:02:17.313Z,70.04
2019-03-22T01:04:48.797Z,70.16
2019-03-22T01:07:19.810Z,70.48
2019-03-22T01:09:50.986Z,70.63
2019-03-22T01:12:22.163Z,70.71
2019-03-22T01:14:53.221Z,70.64
2019-03-22T01:17:24.261Z,70.77
2019-03-22T01:19:55.407Z,71.00
2019-03-22T01:22:26.463Z,71.03
2019-03-22T01:24:57.496Z,71.12
2019-03-22T01:27:39.522Z,71.36
2019-03-22T01:30:02.440Z,71.53
2019-03-22T01:32:36.503Z,71.42
2019-03-22T01:35:09.882Z,71.34
2019-03-22T01:37:42.365Z,71.37
2019-03-22T01:40:15.056Z,71.45
2019-03-22T01:42:46.502Z,71.27
2019-03-22T01:45:17.672Z,71.43
2019-03-22T01:47:48.756Z,71.19
2019-03-22T01:50:19.889Z,71.05
2019-03-22T01:52:50.883Z,71.12
2019-03-22T01:55:21.998Z,71.07
2019-03-22T01:57:54.095Z,71.12
2019-03-22T02:00:25.447Z,71.21
2019-03-22T02:02:56.679Z,71.72
2019-03-22T02:05:28.742Z,71.82
2019-03-22T02:08:01.914Z,71.55
2019-03-22T02:11:05.495Z,71.49
2019-03-22T02:13:37.149Z,71.55
2019-03-22T02:16:08.199Z,71.25
2019-03-22T02:18:40.943Z,71.02
2019-03-22T02:21:33.609Z,71.15
2019-03-22T02:24:05.516Z,71.57
2019-03-22T02:26:37.560Z,71.33
2019-03-22T02:29:08.548Z,71.53
2019-03-22T02:31:39.642Z,71.59
2019-03-22T02:34:10.732Z,71.90
2019-03-22T02:36:41.870Z,71.75
2019-03-22T02:39:13.769Z,71.50
2019-03-22T02:41:45.275Z,71.68
2019-03-22T02:44:16.488Z,71.48
2019-03-22T02:46:47.707Z,71.23
2019-03-22T02:49:18.776Z,71.43
2019-03-22T02:51:49.922Z,71.16
2019-03-22T02:54:20.963Z,71.13
2019-03-22T02:56:52.116Z,71.07
2019-03-22T02:59:23.350Z,70.88
2019-03-22T03:01:54.483Z,71.11
2019-03-22T03:04:26.632Z,70.95
2019-03-22T03:06:59.383Z,70.74
2019-03-22T03:09:30.898Z,70.69
2019-03-22T03:12:02.344Z,70.66
2019-03-22T03:14:33.565Z,70.95
2019-03-22T03:17:04.620Z,71.11
2019-03-22T03:19:36.775Z,70.89
2019-03-22T03:22:07.767Z,71.06
2019-03-22T03:24:38.788Z,71.28
2019-03-22T03:27:09.933Z,71.25
2019-03-22T03:29:40.970Z,71.14
2019-03-22T03:32:12.154Z,71.21
2019-03-22T03:34:43.149Z,71.13
2019-03-22T03:37:14.200Z,71.09
2019-03-22T03:39:45.228Z,70.85
2019-03-22T03:42:16.350Z,71.11
2019-03-22T03:44:47.322Z,70.99
2019-03-22T03:47:18.465Z,70.85
2019-03-22T03:49:49.583Z,71.10
2019-03-22T03:52:20.633Z,71.43
2019-03-22T03:54:51.686Z,71.44
2019-03-22T03:57:22.976Z,71.54
2019-03-22T03:59:53.950Z,72.11
2019-03-22T04:02:25.483Z,72.71
2019-03-22T04:04:58.841Z,73.19
2019-03-22T04:07:30.004Z,73.47
2019-03-22T04:10:05.865Z,73.07
2019-03-22T04:12:39.995Z,72.97
2019-03-22T04:15:10.546Z,72.70
2019-03-22T04:17:41.373Z,73.09
2019-03-22T04:20:12.452Z,72.98
2019-03-22T04:22:43.482Z,72.69
2019-03-22T04:25:14.621Z,72.71
2019-03-22T04:27:45.676Z,73.06
2019-03-22T04:30:17.156Z,73.35
2019-03-22T04:32:50.973Z,73.23
2019-03-22T04:35:22.774Z,72.79
2019-03-22T04:37:54.154Z,72.93
2019-03-22T04:40:26.894Z,73.23
2019-03-22T04:42:58.031Z,73.07
2019-03-22T04:45:33.658Z,73.07
2019-03-22T04:48:11.063Z,73.28
2019-03-22T04:50:42.125Z,73.32
2019-03-22T04:53:14.171Z,73.49
2019-03-22T04:55:46.654Z,73.29
2019-03-22T04:58:17.861Z,73.25
2019-03-22T05:00:49.990Z,73.31
2019-03-22T05:03:21.152Z,72.63
2019-03-22T05:05:54.425Z,72.73
2019-03-22T05:08:25.411Z,72.70
2019-03-22T05:10:56.434Z,72.66
2019-03-22T05:13:27.727Z,72.04
2019-03-22T05:16:01.259Z,71.88
2019-03-22T05:18:34.350Z,71.60
2019-03-22T05:21:05.407Z,71.26
2019-03-22T05:23:36.527Z,70.80
2019-03-22T05:26:08.076Z,70.74
2019-03-22T05:28:39.588Z,69.69
2019-03-22T05:31:19.572Z,68.99
2019-03-22T05:33:50.726Z,67.73
2019-03-22T05:36:22.547Z,66.80
2019-03-22T05:38:54.594Z,65.83
2019-03-22T05:44:34.802Z,64.75
2019-03-22T05:47:06.867Z,64.70
2019-03-22T05:50:03.245Z,64.97
2019-03-22T05:52:43.303Z,65.48
2019-03-22T05:55:14.365Z,65.48
2019-03-22T05:57:45.494Z,65.15
2019-03-22T06:00:17.910Z,64.35
2019-03-22T06:02:49.006Z,63.35
2019-03-22T06:05:20.144Z,64.38
2019-03-22T06:07:51.258Z,65.12
2019-03-22T06:10:22.341Z,64.07
2019-03-22T06:12:53.825Z,63.42
2019-03-22T06:15:24.903Z,64.02
2019-03-22T06:17:57.841Z,63.99
2019-03-22T06:20:32.139Z,63.49
2019-03-22T06:23:03.512Z,62.54
2019-03-22T06:25:34.691Z,63.20
2019-03-22T06:28:05.965Z,63.44
2019-03-22T06:30:42.415Z,61.75
2019-03-22T06:33:13.497Z,61.75
2019-03-22T06:35:44.626Z,61.63
2019-03-22T06:38:15.619Z,60.63
2019-03-22T06:40:46.613Z,60.83
2019-03-22T06:43:17.696Z,60.29
2019-03-22T06:45:48.792Z,60.93
2019-03-22T06:48:19.882Z,60.47
2019-03-22T06:50:50.973Z,60.77
2019-03-22T06:53:22.181Z,60.55
2019-03-22T06:55:54.808Z,60.04
2019-03-22T06:58:32.875Z,59.05
2019-03-22T07:01:03.948Z,57.62
2019-03-22T07:03:35.040Z,58.13
2019-03-22T07:06:07.084Z,59.02
2019-03-22T07:08:38.199Z,58.66
2019-03-22T07:11:09.343Z,59.17
2019-03-22T07:13:40.449Z,58.31
2019-03-22T07:16:11.451Z,57.36
2019-03-22T07:18:42.589Z,57.80
2019-03-22T07:21:13.613Z,57.75
2019-03-22T07:23:44.748Z,57.44
2019-03-22T07:26:15.809Z,56.63
2019-03-22T07:28:46.835Z,56.29
2019-03-22T07:31:17.970Z,57.00
2019-03-22T07:33:49.027Z,56.54
2019-03-22T07:36:23.337Z,56.37
2019-03-22T07:38:54.537Z,56.02
2019-03-22T07:41:25.633Z,56.48
2019-03-22T07:43:56.618Z,56.13
2019-03-22T07:46:27.713Z,55.47
2019-03-22T07:48:58.824Z,53.92
2019-03-22T07:51:29.795Z,54.33
2019-03-22T07:54:03.542Z,54.88
2019-03-22T07:56:33.620Z,54.64
2019-03-22T07:59:04.630Z,54.83
2019-03-22T08:01:35.721Z,55.10
2019-03-22T08:04:06.755Z,55.15
2019-03-22T08:06:37.787Z,55.12
2019-03-22T08:09:09.446Z,54.88
2019-03-22T08:11:40.604Z,53.72
2019-03-22T08:14:11.693Z,53.34
2019-03-22T08:16:42.665Z,52.36
2019-03-22T08:19:13.720Z,51.45
2019-03-22T08:23:59.413Z,51.37
2019-03-22T08:26:30.536Z,51.02
2019-03-22T08:29:02.898Z,50.48
2019-03-22T08:31:33.912Z,50.70
2019-03-22T08:34:05.073Z,50.34
2019-03-22T08:36:36.188Z,50.22
2019-03-22T08:39:08.648Z,49.95
2019-03-22T08:41:39.688Z,49.63
2019-03-22T08:44:10.729Z,50.04
2019-03-22T08:46:44.962Z,49.60
2019-03-22T08:49:15.811Z,49.74
2019-03-22T08:51:49.515Z,49.88
2019-03-22T08:54:19.609Z,49.29
2019-03-22T08:56:50.741Z,48.57
2019-03-22T08:59:21.802Z,46.96
2019-03-22T09:01:52.962Z,46.35
2019-03-22T09:04:23.952Z,46.40
2019-03-22T09:06:54.928Z,45.75
2019-03-22T09:09:26.090Z,45.40
2019-03-22T09:11:57.141Z,44.65
2019-03-22T09:14:28.239Z,43.73
2019-03-22T09:16:59.634Z,42.92
2019-03-22T09:19:31.043Z,42.03
2019-03-22T09:22:02.154Z,42.44
2019-03-22T09:24:39.012Z,42.95
2019-03-22T09:27:06.150Z,43.36
2019-03-22T09:29:37.835Z,44.49
2019-03-22T09:32:08.973Z,45.51
2019-03-22T09:34:40.065Z,46.76
2019-03-22T09:37:11.243Z,46.91
2019-03-22T09:39:42.328Z,47.02
2019-03-22T09:42:13.375Z,47.28
2019-03-22T09:44:45.301Z,48.15
2019-03-22T09:47:17.033Z,48.67
2019-03-22T09:49:51.034Z,48.45
2019-03-22T09:52:21.528Z,48.11
2019-03-22T09:54:54.221Z,48.36
2019-03-22T09:57:25.277Z,48.39
2019-03-22T09:59:56.631Z,48.59
2019-03-22T10:02:27.840Z,49.18
2019-03-22T10:04:59.211Z,49.33
2019-03-22T10:07:30.346Z,49.89
2019-03-22T10:10:02.559Z,49.48
2019-03-22T10:12:33.867Z,49.08
2019-03-22T10:15:06.627Z,49.29
2019-03-22T10:17:37.708Z,49.58
2019-03-22T10:20:08.799Z,49.77
2019-03-22T10:22:39.938Z,50.05
2019-03-22T10:25:11.090Z,50.42
2019-03-22T10:27:42.166Z,50.78
2019-03-22T10:30:15.070Z,51.05
2019-03-22T10:32:46.103Z,51.45
2019-03-22T10:35:25.918Z,52.00
2019-03-22T10:37:49.943Z,52.38
2019-03-22T10:40:20.991Z,51.94
2019-03-22T10:42:51.956Z,51.62
2019-03-22T10:45:23.084Z,51.97
2019-03-22T10:47:54.562Z,52.30
2019-03-22T10:50:25.949Z,52.09
2019-03-22T10:52:57.080Z,52.75
2019-03-22T10:55:30.343Z,52.48
2019-03-22T10:58:01.076Z,52.62
2019-03-22T11:00:32.502Z,51.28
2019-03-22T11:03:03.670Z,50.84
2019-03-22T11:05:34.756Z,51.10
2019-03-22T11:08:05.901Z,50.83
2019-03-22T11:10:36.954Z,50.54
2019-03-22T11:13:08.104Z,50.42
2019-03-22T11:15:48.102Z,50.65
2019-03-22T11:18:12.073Z,51.26
2019-03-22T11:20:43.042Z,52.51
2019-03-22T11:23:14.100Z,52.82
2019-03-22T11:25:45.139Z,52.81
2019-03-22T11:28:16.550Z,53.08
2019-03-22T11:30:47.771Z,54.33
2019-03-22T11:33:18.886Z,54.77
2019-03-22T11:35:50.028Z,55.65
2019-03-22T11:38:22.925Z,56.63
2019-03-22T11:40:53.945Z,56.08
2019-03-22T11:43:25.668Z,54.85
2019-03-22T11:45:56.847Z,54.81
2019-03-22T11:48:28.063Z,55.37
2019-03-22T11:50:59.052Z,55.71
2019-03-22T11:53:30.073Z,56.26
2019-03-22T11:56:01.108Z,56.42
2019-03-22T11:58:32.272Z,56.00
2019-03-22T12:01:03.468Z,55.61
2019-03-22T12:03:34.552Z,55.49
2019-03-22T12:06:05.770Z,55.77
2019-03-22T12:08:37.207Z,56.55
2019-03-22T12:11:08.287Z,57.03
2019-03-22T12:13:39.342Z,57.06
2019-03-22T12:16:10.476Z,57.32
2019-03-22T12:18:41.510Z,57.41
2019-03-22T12:21:12.553Z,58.47
2019-03-22T12:23:43.607Z,58.84
2019-03-22T12:26:14.954Z,58.90
2019-03-22T12:28:46.398Z,59.03
2019-03-22T12:31:19.419Z,59.30
2019-03-22T12:33:50.420Z,59.42
2019-03-22T12:36:21.523Z,59.27
2019-03-22T12:38:52.683Z,59.29
2019-03-22T12:41:24.125Z,59.17
2019-03-22T12:43:55.177Z,59.55
2019-03-22T12:46:26.286Z,60.26
2019-03-22T12:48:57.410Z,60.45
2019-03-22T12:51:28.437Z,60.39
2019-03-22T12:53:59.490Z,61.07
2019-03-22T12:56:30.553Z,61.13
2019-03-22T12:59:01.661Z,61.87
2019-03-22T13:01:32.805Z,61.90
2019-03-22T13:04:03.846Z,61.66
2019-03-22T13:06:34.888Z,61.41
2019-03-22T13:09:08.098Z,61.05
2019-03-22T13:11:39.223Z,61.16
2019-03-22T13:14:10.272Z,61.58
2019-03-22T13:16:41.486Z,62.08
2019-03-22T13:19:14.071Z,62.84
2019-03-22T13:21:45.128Z,64.69
2019-03-22T13:24:16.257Z,64.93
2019-03-22T13:26:47.239Z,64.63
2019-03-22T13:29:18.360Z,64.42
2019-03-22T13:31:49.398Z,64.03
2019-03-22T13:34:20.478Z,63.73
2019-03-22T13:36:51.672Z,63.34
2019-03-22T13:39:22.769Z,63.34
2019-03-22T13:41:53.873Z,63.18
2019-03-22T13:44:25.019Z,63.36
2019-03-22T13:46:56.052Z,63.60
2019-03-22T13:49:27.042Z,64.27
2019-03-22T13:51:58.134Z,65.96
2019-03-22T13:54:29.277Z,67.52
2019-03-22T13:57:00.326Z,70.00
2019-03-22T13:59:31.574Z,72.22
2019-03-22T14:02:02.777Z,74.10
2019-03-22T14:04:33.898Z,76.63
2019-03-22T14:07:04.997Z,78.31
2019-03-22T14:09:36.189Z,79.66
2019-03-22T14:12:07.355Z,79.58
2019-03-22T14:14:38.447Z,79.47
2019-03-22T14:17:09.492Z,79.55
2019-03-22T14:19:40.573Z,79.63
2019-03-22T14:22:11.664Z,79.50
2019-03-22T14:24:42.697Z,79.17
2019-03-22T14:27:13.905Z,79.07
2019-03-22T14:29:45.097Z,78.64
2019-03-22T14:32:16.202Z,78.62
2019-03-22T14:34:47.268Z,78.48
2019-03-22T14:37:18.315Z,78.33
2019-03-22T14:39:49.386Z,78.46
2019-03-22T14:42:20.402Z,78.41
2019-03-22T14:44:51.434Z,77.80
2019-03-22T14:47:22.602Z,77.67
2019-03-22T14:49:53.733Z,77.67
2019-03-22T14:52:24.885Z,77.43
2019-03-22T14:54:55.931Z,77.28
2019-03-22T14:57:26.927Z,77.16
2019-03-22T14:59:59.207Z,76.64
2019-03-22T15:02:30.415Z,76.61
2019-03-22T15:05:01.509Z,75.98
2019-03-22T15:07:33.702Z,75.43
2019-03-22T15:10:13.223Z,75.06
2019-03-22T15:12:44.363Z,74.86
2019-03-22T15:15:26.221Z,74.91
2019-03-22T15:17:58.846Z,74.61
2019-03-22T15:20:31.467Z,74.34
2019-03-22T15:23:06.991Z,74.17
2019-03-22T15:25:45.590Z,73.64
2019-03-22T15:28:30.576Z,73.35
2019-03-22T15:31:03.359Z,73.41
2019-03-22T15:33:36.068Z,73.68
2019-03-22T15:36:08.818Z,74.04
2019-03-22T15:38:58.481Z,74.34
2019-03-22T15:41:29.833Z,74.20
2019-03-22T15:44:00.975Z,74.11
2019-03-22T15:46:31.992Z,73.68
2019-03-22T15:49:03.330Z,73.26
2019-03-22T15:51:34.510Z,72.79
2019-03-22T15:54:05.668Z,72.60
2019-03-22T15:56:36.843Z,72.54
2019-03-22T15:59:08.145Z,72.42
2019-03-22T16:01:39.207Z,72.18
2019-03-22T16:04:10.251Z,71.73
2019-03-22T16:06:41.385Z,71.34
2019-03-22T16:09:12.500Z,72.17
2019-03-22T16:11:43.702Z,78.51
2019-03-22T16:14:14.734Z,82.71
2019-03-22T16:16:45.845Z,82.78
2019-03-22T16:19:17.346Z,84.24
2019-03-22T16:21:48.220Z,84.49
2019-03-22T16:24:19.176Z,85.28
2019-03-22T16:26:50.169Z,85.57
2019-03-22T16:29:21.518Z,85.68
2019-03-22T16:31:52.636Z,85.66
2019-03-22T16:34:23.550Z,85.62
2019-03-22T16:36:54.664Z,85.89
2019-03-22T16:39:25.658Z,84.90
2019-03-22T16:41:56.848Z,86.50
2019-03-22T16:44:27.897Z,86.02
2019-03-22T16:46:59.156Z,84.72
2019-03-22T16:49:37.667Z,83.30
2019-03-22T16:52:16.065Z,83.75
2019-03-22T16:54:47.491Z,84.43
2019-03-22T16:57:20.686Z,83.56
2019-03-22T16:59:51.851Z,83.54
2019-03-22T17:02:23.020Z,83.36
2019-03-22T17:04:54.237Z,83.39
2019-03-22T17:07:25.734Z,83.22
2019-03-22T17:09:56.823Z,82.75
2019-03-22T17:12:27.963Z,82.21
2019-03-22T17:14:59.148Z,82.19
2019-03-22T17:17:31.471Z,82.16
2019-03-22T17:20:02.644Z,82.22
2019-03-22T17:22:34.155Z,82.71
2019-03-22T17:25:07.052Z,82.53
2019-03-22T17:27:39.037Z,82.77
2019-03-22T17:30:11.411Z,82.83
2019-03-22T17:32:42.485Z,82.65
2019-03-22T17:35:13.574Z,82.91
2019-03-22T17:37:44.596Z,82.25
2019-03-22T17:40:16.097Z,82.05
2019-03-22T17:42:47.430Z,82.18
2019-03-22T17:45:19.487Z,82.04
2019-03-22T17:47:50.520Z,82.17
2019-03-22T17:50:22.068Z,82.34
2019-03-22T17:52:53.057Z,81.71
2019-03-22T17:55:24.146Z,82.21
2019-03-22T17:57:55.269Z,81.59
2019-03-22T18:00:27.869Z,81.67
2019-03-22T18:02:59.578Z,81.62
2019-03-22T18:05:30.654Z,80.96
2019-03-22T18:08:01.628Z,81.18
2019-03-22T18:10:32.978Z,81.24
2019-03-22T18:13:05.907Z,81.13
2019-03-22T18:15:37.067Z,81.09
2019-03-22T18:18:08.306Z,80.83
2019-03-22T18:20:39.496Z,80.77
2019-03-22T18:23:10.587Z,80.75
2019-03-22T18:25:41.831Z,80.40
2019-03-22T18:28:14.064Z,79.93
2019-03-22T18:30:45.265Z,80.04
2019-03-22T18:33:16.572Z,79.65
2019-03-22T18:35:47.762Z,79.53
2019-03-22T18:38:19.370Z,79.10
2019-03-22T18:40:50.426Z,79.03
2019-03-22T18:43:22.018Z,79.04
2019-03-22T18:45:53.132Z,78.79
2019-03-22T18:48:24.516Z,78.81
2019-03-22T18:50:57.037Z,78.99
2019-03-22T18:53:29.702Z,78.96
2019-03-22T18:56:01.023Z,79.18
2019-03-22T18:58:32.202Z,78.97
2019-03-22T19:01:03.458Z,78.93
2019-03-22T19:03:34.697Z,78.71
2019-03-22T19:06:05.805Z,78.82
2019-03-22T19:08:36.969Z,78.73
2019-03-22T19:11:08.287Z,78.59
2019-03-22T19:13:39.527Z,78.29
2019-03-22T19:16:10.701Z,78.13
2019-03-22T19:18:42.745Z,77.68
2019-03-22T19:21:13.769Z,77.55
2019-03-22T19:23:44.921Z,77.70
2019-03-22T19:26:16.189Z,77.83
2019-03-22T19:28:47.296Z,78.13
2019-03-22T19:31:18.570Z,77.67
2019-03-22T19:33:49.741Z,78.06
2019-03-22T19:36:21.057Z,78.26
2019-03-22T19:38:52.199Z,78.47
2019-03-22T19:41:23.359Z,78.98
2019-03-22T19:43:54.379Z,78.32
2019-03-22T19:46:25.421Z,77.93
2019-03-22T19:48:56.461Z,77.80
2019-03-22T19:51:27.491Z,78.17
2019-03-22T19:53:58.484Z,78.10
2019-03-22T19:56:29.807Z,78.38
2019-03-22T19:59:01.383Z,78.78
2019-03-22T20:01:32.595Z,78.56
2019-03-22T20:04:03.600Z,78.46
2019-03-22T20:06:34.903Z,78.14
2019-03-22T20:09:08.749Z,78.14
2019-03-22T20:11:39.997Z,77.45
2019-03-22T20:14:11.043Z,77.80
2019-03-22T20:16:42.085Z,78.14
2019-03-22T20:19:13.099Z,77.89
2019-03-22T20:21:44.211Z,77.81
2019-03-22T20:24:15.410Z,77.86
2019-03-22T20:26:46.486Z,77.74
2019-03-22T20:29:19.108Z,77.48
2019-03-22T20:31:50.104Z,78.24
2019-03-22T20:34:21.065Z,78.43
2019-03-22T20:36:52.206Z,78.25
2019-03-22T20:39:23.115Z,77.55
2019-03-22T20:41:54.131Z,77.13
2019-03-22T20:44:33.586Z,76.99
2019-03-22T20:46:57.924Z,76.75
2019-03-22T20:49:29.070Z,76.54
2019-03-22T20:52:00.244Z,76.82
2019-03-22T20:54:31.386Z,77.21
2019-03-22T20:57:02.587Z,76.99
2019-03-22T20:59:33.659Z,76.88
2019-03-22T21:02:04.734Z,77.31
2019-03-22T21:04:35.907Z,76.90
2019-03-22T21:07:07.105Z,76.42
2019-03-22T21:09:38.216Z,76.21
2019-03-22T21:12:09.435Z,76.36
2019-03-22T21:14:40.681Z,76.27
2019-03-22T21:17:12.036Z,76.40
2019-03-22T21:19:43.247Z,76.39
2019-03-22T21:22:14.317Z,76.11
2019-03-22T21:24:45.425Z,76.32
2019-03-22T21:27:16.484Z,75.85
2019-03-22T21:29:47.717Z,75.68
2019-03-22T21:32:18.814Z,75.38
2019-03-22T21:34:49.816Z,75.00
2019-03-22T21:37:20.926Z,75.13
2019-03-22T21:39:52.124Z,74.88
2019-03-22T21:42:23.626Z,75.04
2019-03-22T21:44:55.147Z,74.55
2019-03-22T21:47:26.165Z,74.56
2019-03-22T21:49:57.240Z,74.72
2019-03-22T21:52:28.181Z,74.20
2019-03-22T21:54:59.199Z,74.15
2019-03-22T21:57:30.188Z,74.56
2019-03-22T22:00:01.282Z,74.60
2019-03-22T22:02:32.217Z,74.49
2019-03-22T22:05:03.152Z,74.35
2019-03-22T22:07:34.177Z,74.12
2019-03-22T22:10:06.814Z,74.32
2019-03-22T22:12:37.954Z,75.08
2019-03-22T22:15:13.325Z,75.10
2019-03-22T22:17:44.763Z,75.05
2019-03-22T22:20:15.738Z,75.09
2019-03-22T22:22:46.708Z,75.04
2019-03-22T22:25:17.714Z,75.19
2019-03-22T22:27:48.658Z,75.18
2019-03-22T22:30:20.274Z,74.98
2019-03-22T22:32:51.621Z,75.08
2019-03-22T22:35:22.845Z,75.34
2019-03-22T22:37:54.210Z,75.51
2019-03-22T22:40:25.312Z,75.97
2019-03-22T22:42:56.570Z,76.07
2019-03-22T22:45:27.596Z,76.13
2019-03-22T22:47:58.633Z,76.23
2019-03-22T22:50:29.625Z,76.06
2019-03-22T22:53:00.613Z,76.05
2019-03-22T22:55:31.646Z,76.17
2019-03-22T22:58:02.606Z,75.90
2019-03-22T23:00:33.618Z,75.50
2019-03-22T23:03:05.111Z,75.37
2019-03-22T23:05:36.402Z,74.87
2019-03-22T23:08:08.336Z,74.61
2019-03-22T23:10:39.614Z,74.37
2019-03-22T23:13:10.634Z,74.17
2019-03-22T23:15:41.734Z,73.75
2019-03-22T23:18:12.673Z,73.60
2019-03-22T23:20:43.655Z,73.73
2019-03-22T23:23:14.734Z,72.08
2019-03-22T23:25:45.703Z,71.61
2019-03-22T23:28:16.841Z,71.38
2019-03-22T23:30:48.911Z,69.48
2019-03-22T23:33:20.966Z,69.66
2019-03-22T23:35:52.015Z,68.88
2019-03-22T23:38:23.057Z,68.89
2019-03-22T23:40:54.262Z,69.06
2019-03-22T23:43:25.299Z,68.29
2019-03-22T23:45:56.485Z,67.87
2019-03-22T23:48:27.502Z,67.23
2019-03-22T23:50:58.469Z,67.62
2019-03-22T23:53:29.424Z,66.59
2019-03-22T23:56:00.430Z,66.53
2019-03-22T23:58:31.553Z,65.90
